Agar, South Dakota
Current Conditions -  °F | °C
As of 3:53 AM on Friday 24 Oct 2014 (Local Time) from KPIR Reporting Station
Clear Clear  
Wind Chill:   Ceiling: Unl
Heat Index:   Visibility: 10mi
Dew Point:   Wind: 7mph
Humidity: 71%   Direction: 240°WSW
Pressure: 29.86"   Gusts: NA
Location:  44.84°N, 100.07°W
Report Text: KPIR 240853Z AUTO 24006KT 10SM CLR 07/02 A2986 RMK AO2 SLP108 T00670017 51005
Loading
Personal Weather Stations






























Interactive Weather Map
Tropical Storm Tracking
New forecast layout! Learn more

10-Day Weather Forecast

Advertisements
Track Severe Weather on mobile